sensor_id;sensor_type;location;lat;lon;timestamp;pressure;altitude;pressure_sealevel;temperature;humidity
30463;BME280;17256;43.618;25.336;2023-04-25T00:02:24;99636.09;;;12.78;100.00
30463;BME280;17256;43.618;25.336;2023-04-25T00:04:50;99681.44;;;13.06;100.00
30463;BME280;17256;43.618;25.336;2023-04-25T00:07:16;99630.00;;;12.76;100.00
30463;BME280;17256;43.618;25.336;2023-04-25T00:09:42;99564.53;;;12.37;100.00
30463;BME280;17256;43.618;25.336;2023-04-25T00:12:08;99748.41;;;13.60;100.00
30463;BME280;17256;43.618;25.336;2023-04-25T00:14:34;99659.38;;;13.06;100.00
30463;BME280;17256;43.618;25.336;2023-04-25T00:17:01;99605.81;;;12.67;100.00
30463;BME280;17256;43.618;25.336;2023-04-25T00:19:27;99674.13;;;13.11;100.00
30463;BME280;17256;43.618;25.336;2023-04-25T00:21:56;99768.53;;;13.60;100.00
30463;BME280;17256;43.618;25.336;2023-04-25T00:24:21;99724.03;;;13.33;100.00
30463;BME280;17256;43.618;25.336;2023-04-25T00:26:47;99639.97;;;12.89;100.00
30463;BME280;17256;43.618;25.336;2023-04-25T00:29:13;99576.44;;;12.49;100.00
30463;BME280;17256;43.618;25.336;2023-04-25T00:31:38;99538.03;;;12.12;100.00
30463;BME280;17256;43.618;25.336;2023-04-25T00:34:05;99614.50;;;12.52;100.00
30463;BME280;17256;43.618;25.336;2023-04-25T00:36:31;99720.16;;;13.11;100.00
30463;BME280;17256;43.618;25.336;2023-04-25T00:38:56;99609.09;;;12.45;100.00
30463;BME280;17256;43.618;25.336;2023-04-25T00:41:38;99810.56;;;13.74;100.00
30463;BME280;17256;43.618;25.336;2023-04-25T00:45:49;99807.56;;;13.64;100.00
30463;BME280;17256;43.618;25.336;2023-04-25T00:53:34;99798.19;;;13.65;100.00
30463;BME280;17256;43.618;25.336;2023-04-25T00:57:36;99788.09;;;13.59;100.00
30463;BME280;17256;43.618;25.336;2023-04-25T01:01:59;99542.31;;;12.08;100.00
30463;BME280;17256;43.618;25.336;2023-04-25T01:05:26;99713.38;;;13.25;100.00
30463;BME280;17256;43.618;25.336;2023-04-25T01:09:09;99659.25;;;13.01;100.00
30463;BME280;17256;43.618;25.336;2023-04-25T01:16:46;99391.28;;;11.35;100.00
30463;BME280;17256;43.618;25.336;2023-04-25T01:24:07;99751.03;;;13.54;100.00
30463;BME280;17256;43.618;25.336;2023-04-25T01:28:03;99444.78;;;11.81;100.00
30463;BME280;17256;43.618;25.336;2023-04-25T01:31:22;99732.31;;;13.57;100.00
30463;BME280;17256;43.618;25.336;2023-04-25T01:35:20;99726.47;;;13.53;100.00
30463;BME280;17256;43.618;25.336;2023-04-25T01:37:54;99568.41;;;12.59;100.00
30463;BME280;17256;43.618;25.336;2023-04-25T01:40:21;99593.56;;;12.62;100.00
30463;BME280;17256;43.618;25.336;2023-04-25T01:42:48;99648.03;;;13.14;100.00
30463;BME280;17256;43.618;25.336;2023-04-25T01:45:14;99590.34;;;12.66;100.00
30463;BME280;17256;43.618;25.336;2023-04-25T01:47:39;99494.28;;;12.22;100.00
30463;BME280;17256;43.618;25.336;2023-04-25T01:50:07;99594.44;;;12.75;100.00
30463;BME280;17256;43.618;25.336;2023-04-25T01:52:34;99511.75;;;12.28;100.00
30463;BME280;17256;43.618;25.336;2023-04-25T01:55:04;99496.91;;;12.17;100.00
30463;BME280;17256;43.618;25.336;2023-04-25T01:57:32;99542.91;;;12.52;100.00
30463;BME280;17256;43.618;25.336;2023-04-25T02:00:01;99491.41;;;12.17;100.00
30463;BME280;17256;43.618;25.336;2023-04-25T02:02:46;99455.34;;;12.07;100.00
30463;BME280;17256;43.618;25.336;2023-04-25T02:05:38;99582.22;;;12.82;100.00
30463;BME280;17256;43.618;25.336;2023-04-25T02:08:08;99581.88;;;12.90;100.00
30463;BME280;17256;43.618;25.336;2023-04-25T02:10:35;99561.47;;;12.80;100.00
30463;BME280;17256;43.618;25.336;2023-04-25T02:13:08;99660.88;;;13.43;100.00
30463;BME280;17256;43.618;25.336;2023-04-25T02:15:43;99617.22;;;13.29;100.00
30463;BME280;17256;43.618;25.336;2023-04-25T02:18:13;99477.66;;;12.41;100.00
30463;BME280;17256;43.618;25.336;2023-04-25T02:20:42;99531.53;;;12.83;100.00
30463;BME280;17256;43.618;25.336;2023-04-25T02:23:08;99595.78;;;13.19;100.00
30463;BME280;17256;43.618;25.336;2023-04-25T02:25:33;99505.31;;;12.69;100.00
30463;BME280;17256;43.618;25.336;2023-04-25T02:27:59;99473.72;;;12.48;100.00
30463;BME280;17256;43.618;25.336;2023-04-25T02:30:28;99599.00;;;13.28;100.00
30463;BME280;17256;43.618;25.336;2023-04-25T02:32:53;99562.31;;;13.04;100.00
30463;BME280;17256;43.618;25.336;2023-04-25T02:35:19;99400.44;;;12.00;100.00
30463;BME280;17256;43.618;25.336;2023-04-25T02:37:45;99475.13;;;12.51;100.00
30463;BME280;17256;43.618;25.336;2023-04-25T02:40:12;99475.63;;;12.48;100.00
30463;BME280;17256;43.618;25.336;2023-04-25T02:42:38;99424.50;;;12.17;100.00
30463;BME280;17256;43.618;25.336;2023-04-25T02:45:04;99515.16;;;12.65;100.00
30463;BME280;17256;43.618;25.336;2023-04-25T02:47:30;99547.72;;;12.80;100.00
30463;BME280;17256;43.618;25.336;2023-04-25T02:49:55;99490.94;;;12.44;100.00
30463;BME280;17256;43.618;25.336;2023-04-25T02:52:21;99560.19;;;12.94;100.00
30463;BME280;17256;43.618;25.336;2023-04-25T02:54:54;99551.31;;;12.92;100.00
30463;BME280;17256;43.618;25.336;2023-04-25T02:57:20;99573.22;;;13.10;100.00
30463;BME280;17256;43.618;25.336;2023-04-25T02:59:45;99647.06;;;13.67;100.00
30463;BME280;17256;43.618;25.336;2023-04-25T03:02:15;99487.47;;;12.72;100.00
30463;BME280;17256;43.618;25.336;2023-04-25T03:04:40;99383.69;;;12.02;100.00
30463;BME280;17256;43.618;25.336;2023-04-25T03:07:07;99702.66;;;13.99;100.00
30463;BME280;17256;43.618;25.336;2023-04-25T03:09:34;99469.16;;;12.54;100.00
30463;BME280;17256;43.618;25.336;2023-04-25T03:12:02;99370.66;;;11.97;100.00
30463;BME280;17256;43.618;25.336;2023-04-25T03:14:28;99531.63;;;13.12;100.00
30463;BME280;17256;43.618;25.336;2023-04-25T03:16:54;99466.88;;;12.74;100.00
30463;BME280;17256;43.618;25.336;2023-04-25T03:19:23;99498.72;;;12.93;100.00
30463;BME280;17256;43.618;25.336;2023-04-25T03:21:49;99550.72;;;13.25;100.00
30463;BME280;17256;43.618;25.336;2023-04-25T03:24:15;99473.59;;;12.67;100.00
30463;BME280;17256;43.618;25.336;2023-04-25T03:26:41;99260.09;;;11.42;100.00
30463;BME280;17256;43.618;25.336;2023-04-25T03:29:07;99302.31;;;11.71;100.00
30463;BME280;17256;43.618;25.336;2023-04-25T03:31:34;99561.34;;;13.10;100.00
30463;BME280;17256;43.618;25.336;2023-04-25T03:34:02;99632.94;;;13.40;100.00
30463;BME280;17256;43.618;25.336;2023-04-25T03:36:27;99471.06;;;12.30;100.00
30463;BME280;17256;43.618;25.336;2023-04-25T03:38:53;99596.47;;;13.03;100.00
30463;BME280;17256;43.618;25.336;2023-04-25T03:41:20;99571.94;;;12.89;100.00
30463;BME280;17256;43.618;25.336;2023-04-25T03:43:53;99518.34;;;12.50;100.00
30463;BME280;17256;43.618;25.336;2023-04-25T03:46:19;99510.09;;;12.50;100.00
30463;BME280;17256;43.618;25.336;2023-04-25T03:48:49;99414.78;;;12.02;100.00
30463;BME280;17256;43.618;25.336;2023-04-25T03:51:21;99444.38;;;12.19;100.00
30463;BME280;17256;43.618;25.336;2023-04-25T03:53:54;99478.13;;;12.49;100.00
30463;BME280;17256;43.618;25.336;2023-04-25T03:56:29;99324.66;;;11.63;100.00
30463;BME280;17256;43.618;25.336;2023-04-25T03:59:02;99575.13;;;13.10;100.00
30463;BME280;17256;43.618;25.336;2023-04-25T04:01:31;99607.25;;;13.51;100.00
30463;BME280;17256;43.618;25.336;2023-04-25T04:03:57;99432.03;;;12.21;100.00
30463;BME280;17256;43.618;25.336;2023-04-25T04:06:23;99627.19;;;13.41;100.00
30463;BME280;17256;43.618;25.336;2023-04-25T04:08:55;99616.50;;;13.45;100.00
30463;BME280;17256;43.618;25.336;2023-04-25T04:11:23;99669.69;;;13.80;100.00
30463;BME280;17256;43.618;25.336;2023-04-25T04:13:48;99569.88;;;13.32;100.00
30463;BME280;17256;43.618;25.336;2023-04-25T04:16:14;99523.53;;;12.93;100.00
30463;BME280;17256;43.618;25.336;2023-04-25T04:18:40;99462.22;;;12.51;100.00
30463;BME280;17256;43.618;25.336;2023-04-25T04:21:06;99520.63;;;12.88;100.00
30463;BME280;17256;43.618;25.336;2023-04-25T04:23:34;99533.22;;;12.96;100.00
30463;BME280;17256;43.618;25.336;2023-04-25T04:26:01;99514.28;;;12.53;100.00
30463;BME280;17256;43.618;25.336;2023-04-25T04:28:45;99429.75;;;11.95;100.00
30463;BME280;17256;43.618;25.336;2023-04-25T04:31:37;99570.47;;;12.99;100.00
30463;BME280;17256;43.618;25.336;2023-04-25T04:34:03;99462.56;;;12.43;100.00
30463;BME280;17256;43.618;25.336;2023-04-25T04:36:30;99555.16;;;12.91;100.00
30463;BME280;17256;43.618;25.336;2023-04-25T04:38:56;99531.66;;;12.77;100.00
30463;BME280;17256;43.618;25.336;2023-04-25T04:41:32;99541.63;;;12.89;100.00
30463;BME280;17256;43.618;25.336;2023-04-25T04:44:10;99697.63;;;13.96;100.00
30463;BME280;17256;43.618;25.336;2023-04-25T04:47:00;99728.94;;;14.01;100.00
30463;BME280;17256;43.618;25.336;2023-04-25T04:50:26;99436.09;;;11.95;100.00
30463;BME280;17256;43.618;25.336;2023-04-25T04:53:08;99460.75;;;12.25;100.00
30463;BME280;17256;43.618;25.336;2023-04-25T04:56:29;99726.53;;;14.05;100.00
30463;BME280;17256;43.618;25.336;2023-04-25T05:03:27;99635.09;;;13.26;100.00
30463;BME280;17256;43.618;25.336;2023-04-25T05:06:11;99652.25;;;13.40;100.00
30463;BME280;17256;43.618;25.336;2023-04-25T05:08:46;99534.31;;;12.72;100.00
30463;BME280;17256;43.618;25.336;2023-04-25T05:11:40;99550.09;;;13.00;100.00
30463;BME280;17256;43.618;25.336;2023-04-25T05:14:24;99539.22;;;12.93;100.00
30463;BME280;17256;43.618;25.336;2023-04-25T05:17:22;99455.25;;;12.60;100.00
30463;BME280;17256;43.618;25.336;2023-04-25T05:24:33;99476.63;;;13.05;100.00
30463;BME280;17256;43.618;25.336;2023-04-25T05:27:10;99486.56;;;13.30;100.00
30463;BME280;17256;43.618;25.336;2023-04-25T05:30:02;99291.44;;;12.23;100.00
30463;BME280;17256;43.618;25.336;2023-04-25T05:32:51;99330.47;;;12.60;100.00
30463;BME280;17256;43.618;25.336;2023-04-25T05:35:18;99381.81;;;12.89;100.00
30463;BME280;17256;43.618;25.336;2023-04-25T05:37:47;99359.75;;;12.89;100.00
30463;BME280;17256;43.618;25.336;2023-04-25T05:40:17;99683.09;;;14.69;100.00
30463;BME280;17256;43.618;25.336;2023-04-25T05:42:43;99446.97;;;13.36;100.00
30463;BME280;17256;43.618;25.336;2023-04-25T05:45:32;99611.97;;;14.48;100.00
30463;BME280;17256;43.618;25.336;2023-04-25T05:48:27;99314.50;;;12.33;100.00
30463;BME280;17256;43.618;25.336;2023-04-25T05:51:14;99536.38;;;13.51;100.00
30463;BME280;17256;43.618;25.336;2023-04-25T05:54:04;99520.84;;;13.34;100.00
30463;BME280;17256;43.618;25.336;2023-04-25T05:56:32;99489.31;;;13.30;100.00
30463;BME280;17256;43.618;25.336;2023-04-25T05:59:04;99444.44;;;13.46;100.00
30463;BME280;17256;43.618;25.336;2023-04-25T06:01:30;99569.53;;;14.25;100.00
30463;BME280;17256;43.618;25.336;2023-04-25T06:03:56;99296.59;;;12.59;100.00
30463;BME280;17256;43.618;25.336;2023-04-25T06:06:26;99626.66;;;14.82;100.00
30463;BME280;17256;43.618;25.336;2023-04-25T06:08:58;99467.56;;;14.19;100.00
30463;BME280;17256;43.618;25.336;2023-04-25T06:11:39;99315.66;;;13.46;100.00
30463;BME280;17256;43.618;25.336;2023-04-25T06:14:07;99568.28;;;14.78;100.00
30463;BME280;17256;43.618;25.336;2023-04-25T06:16:48;99736.09;;;15.78;100.00
30463;BME280;17256;43.618;25.336;2023-04-25T06:19:37;99525.56;;;14.69;100.00
30463;BME280;17256;43.618;25.336;2023-04-25T06:22:25;99477.84;;;14.40;100.00
30463;BME280;17256;43.618;25.336;2023-04-25T06:24:51;99646.16;;;15.42;100.00
30463;BME280;17256;43.618;25.336;2023-04-25T06:27:16;99489.91;;;14.67;100.00
30463;BME280;17256;43.618;25.336;2023-04-25T06:29:42;99314.22;;;13.61;100.00
30463;BME280;17256;43.618;25.336;2023-04-25T06:32:07;99498.66;;;14.81;100.00
30463;BME280;17256;43.618;25.336;2023-04-25T06:34:34;99556.56;;;15.26;100.00
30463;BME280;17256;43.618;25.336;2023-04-25T06:37:00;99528.88;;;15.04;100.00
30463;BME280;17256;43.618;25.336;2023-04-25T06:39:25;99409.56;;;14.19;100.00
30463;BME280;17256;43.618;25.336;2023-04-25T06:41:51;99465.44;;;14.59;100.00
30463;BME280;17256;43.618;25.336;2023-04-25T06:44:35;99484.81;;;14.98;100.00
30463;BME280;17256;43.618;25.336;2023-04-25T06:47:02;99489.59;;;14.86;100.00
30463;BME280;17256;43.618;25.336;2023-04-25T06:49:28;99468.47;;;14.74;100.00
30463;BME280;17256;43.618;25.336;2023-04-25T06:51:54;99489.19;;;14.94;100.00
30463;BME280;17256;43.618;25.336;2023-04-25T06:54:21;99536.59;;;14.86;100.00
30463;BME280;17256;43.618;25.336;2023-04-25T06:57:10;99571.63;;;14.97;100.00
30463;BME280;17256;43.618;25.336;2023-04-25T06:59:36;99587.88;;;15.32;100.00
30463;BME280;17256;43.618;25.336;2023-04-25T07:02:02;99612.31;;;15.57;100.00
30463;BME280;17256;43.618;25.336;2023-04-25T07:04:29;99483.16;;;14.97;100.00
30463;BME280;17256;43.618;25.336;2023-04-25T07:06:57;99532.16;;;15.01;100.00
30463;BME280;17256;43.618;25.336;2023-04-25T07:09:31;99752.00;;;16.48;100.00
30463;BME280;17256;43.618;25.336;2023-04-25T07:12:00;99485.84;;;15.35;100.00
30463;BME280;17256;43.618;25.336;2023-04-25T07:14:27;99556.47;;;15.60;100.00
30463;BME280;17256;43.618;25.336;2023-04-25T07:16:55;99593.81;;;15.79;100.00
30463;BME280;17256;43.618;25.336;2023-04-25T07:19:26;99672.16;;;16.45;100.00
30463;BME280;17256;43.618;25.336;2023-04-25T07:21:58;99727.16;;;16.58;100.00
30463;BME280;17256;43.618;25.336;2023-04-25T07:24:24;99495.50;;;15.55;100.00
30463;BME280;17256;43.618;25.336;2023-04-25T07:26:51;99405.44;;;15.15;100.00
30463;BME280;17256;43.618;25.336;2023-04-25T07:29:24;99325.28;;;14.71;100.00
30463;BME280;17256;43.618;25.336;2023-04-25T07:31:50;99523.69;;;15.95;100.00
30463;BME280;17256;43.618;25.336;2023-04-25T07:34:16;99581.53;;;16.46;100.00
30463;BME280;17256;43.618;25.336;2023-04-25T07:36:44;99599.78;;;16.69;100.00
30463;BME280;17256;43.618;25.336;2023-04-25T07:39:10;99354.75;;;15.36;100.00
30463;BME280;17256;43.618;25.336;2023-04-25T07:41:37;99527.28;;;16.55;100.00
30463;BME280;17256;43.618;25.336;2023-04-25T07:44:05;99504.63;;;16.31;100.00
30463;BME280;17256;43.618;25.336;2023-04-25T07:46:32;99540.50;;;16.43;100.00
30463;BME280;17256;43.618;25.336;2023-04-25T07:48:58;99590.19;;;16.81;100.00
30463;BME280;17256;43.618;25.336;2023-04-25T07:51:26;99629.06;;;16.86;100.00
30463;BME280;17256;43.618;25.336;2023-04-25T07:53:56;99386.69;;;16.03;100.00
30463;BME280;17256;43.618;25.336;2023-04-25T07:56:22;99621.38;;;17.78;100.00
30463;BME280;17256;43.618;25.336;2023-04-25T07:58:50;99538.34;;;17.24;100.00
30463;BME280;17256;43.618;25.336;2023-04-25T08:01:18;99352.72;;;15.81;100.00
30463;BME280;17256;43.618;25.336;2023-04-25T08:03:56;99586.41;;;17.35;100.00
30463;BME280;17256;43.618;25.336;2023-04-25T08:06:31;99626.75;;;17.52;100.00
30463;BME280;17256;43.618;25.336;2023-04-25T08:09:06;99559.13;;;17.69;100.00
30463;BME280;17256;43.618;25.336;2023-04-25T08:11:38;99359.63;;;16.57;98.49
30463;BME280;17256;43.618;25.336;2023-04-25T08:14:06;99554.91;;;18.59;94.50
30463;BME280;17256;43.618;25.336;2023-04-25T08:16:33;99563.28;;;18.64;90.85
30463;BME280;17256;43.618;25.336;2023-04-25T08:19:01;99611.94;;;18.77;90.10
30463;BME280;17256;43.618;25.336;2023-04-25T08:21:27;99637.25;;;19.31;87.93
30463;BME280;17256;43.618;25.336;2023-04-25T08:23:55;99350.56;;;17.50;90.51
30463;BME280;17256;43.618;25.336;2023-04-25T08:26:26;99604.16;;;19.04;94.73
30463;BME280;17256;43.618;25.336;2023-04-25T08:28:53;99569.66;;;19.11;90.80
30463;BME280;17256;43.618;25.336;2023-04-25T08:31:21;99767.19;;;20.27;87.89
30463;BME280;17256;43.618;25.336;2023-04-25T08:33:54;99604.97;;;19.25;87.29
30463;BME280;17256;43.618;25.336;2023-04-25T08:36:25;99626.31;;;19.86;86.99
30463;BME280;17256;43.618;25.336;2023-04-25T08:38:53;99505.94;;;19.14;86.96
30463;BME280;17256;43.618;25.336;2023-04-25T08:41:21;99402.53;;;18.51;84.65
30463;BME280;17256;43.618;25.336;2023-04-25T08:43:49;99638.19;;;20.07;80.23
30463;BME280;17256;43.618;25.336;2023-04-25T08:49:35;99607.56;;;20.02;79.51
30463;BME280;17256;43.618;25.336;2023-04-25T08:52:03;99594.09;;;19.39;78.29
30463;BME280;17256;43.618;25.336;2023-04-25T08:54:32;99544.94;;;18.84;78.30
30463;BME280;17256;43.618;25.336;2023-04-25T08:57:01;99585.53;;;18.95;79.31
30463;BME280;17256;43.618;25.336;2023-04-25T08:59:27;99759.22;;;19.65;81.20
30463;BME280;17256;43.618;25.336;2023-04-25T09:01:55;99647.59;;;19.11;81.65
30463;BME280;17256;43.618;25.336;2023-04-25T09:04:21;99531.22;;;18.16;80.69
30463;BME280;17256;43.618;25.336;2023-04-25T09:06:47;99634.78;;;19.10;80.72
30463;BME280;17256;43.618;25.336;2023-04-25T09:09:13;99684.28;;;19.28;81.43
30463;BME280;17256;43.618;25.336;2023-04-25T09:11:40;99587.19;;;18.70;80.32
30463;BME280;17256;43.618;25.336;2023-04-25T09:17:01;99616.31;;;18.37;89.50
30463;BME280;17256;43.618;25.336;2023-04-25T09:19:39;99606.75;;;18.08;93.59
30463;BME280;17256;43.618;25.336;2023-04-25T09:22:10;99622.41;;;18.29;92.98
30463;BME280;17256;43.618;25.336;2023-04-25T09:24:38;99672.53;;;18.60;96.57
30463;BME280;17256;43.618;25.336;2023-04-25T09:27:13;99360.88;;;16.82;97.25
30463;BME280;17256;43.618;25.336;2023-04-25T09:29:43;99597.38;;;18.19;96.13
30463;BME280;17256;43.618;25.336;2023-04-25T09:32:23;99378.59;;;16.71;98.39
30463;BME280;17256;43.618;25.336;2023-04-25T09:34:53;99597.88;;;18.06;98.25
30463;BME280;17256;43.618;25.336;2023-04-25T09:37:21;99372.03;;;16.92;100.00
30463;BME280;17256;43.618;25.336;2023-04-25T09:40:06;99515.03;;;17.82;100.00
30463;BME280;17256;43.618;25.336;2023-04-25T09:42:41;99743.88;;;19.12;100.00
30463;BME280;17256;43.618;25.336;2023-04-25T09:45:07;99668.59;;;18.51;100.00
30463;BME280;17256;43.618;25.336;2023-04-25T09:47:37;99605.09;;;18.07;100.00
30463;BME280;17256;43.618;25.336;2023-04-25T09:50:13;99663.31;;;18.44;100.00
30463;BME280;17256;43.618;25.336;2023-04-25T09:52:40;99741.56;;;18.83;100.00
30463;BME280;17256;43.618;25.336;2023-04-25T09:55:15;99546.59;;;17.66;100.00
30463;BME280;17256;43.618;25.336;2023-04-25T09:57:44;99716.53;;;18.83;100.00
30463;BME280;17256;43.618;25.336;2023-04-25T10:00:14;99540.84;;;17.78;100.00
30463;BME280;17256;43.618;25.336;2023-04-25T10:02:42;99733.81;;;18.85;100.00
30463;BME280;17256;43.618;25.336;2023-04-25T10:05:12;99416.38;;;16.87;100.00
30463;BME280;17256;43.618;25.336;2023-04-25T10:07:39;99596.19;;;18.00;100.00
30463;BME280;17256;43.618;25.336;2023-04-25T10:10:12;99736.00;;;18.78;100.00
30463;BME280;17256;43.618;25.336;2023-04-25T10:12:38;99555.09;;;17.39;100.00
30463;BME280;17256;43.618;25.336;2023-04-25T10:15:06;99473.88;;;17.07;100.00
30463;BME280;17256;43.618;25.336;2023-04-25T10:17:33;99590.75;;;17.63;100.00
30463;BME280;17256;43.618;25.336;2023-04-25T10:20:02;99740.91;;;18.56;100.00
30463;BME280;17256;43.618;25.336;2023-04-25T10:22:35;99560.72;;;17.60;100.00
30463;BME280;17256;43.618;25.336;2023-04-25T10:25:01;99532.25;;;17.27;100.00
30463;BME280;17256;43.618;25.336;2023-04-25T10:27:30;99551.06;;;17.15;100.00
30463;BME280;17256;43.618;25.336;2023-04-25T10:30:07;99633.50;;;17.67;100.00
30463;BME280;17256;43.618;25.336;2023-04-25T10:32:36;99522.69;;;16.66;100.00
30463;BME280;17256;43.618;25.336;2023-04-25T10:35:17;99514.44;;;16.71;100.00
30463;BME280;17256;43.618;25.336;2023-04-25T10:38:05;99727.81;;;18.46;100.00
30463;BME280;17256;43.618;25.336;2023-04-25T10:40:32;99740.47;;;18.84;100.00
30463;BME280;17256;43.618;25.336;2023-04-25T10:46:02;99744.72;;;19.73;100.00
30463;BME280;17256;43.618;25.336;2023-04-25T10:48:31;99679.84;;;19.32;94.25
30463;BME280;17256;43.618;25.336;2023-04-25T10:51:10;99670.94;;;19.45;95.00
30463;BME280;17256;43.618;25.336;2023-04-25T10:53:36;99605.25;;;19.34;100.00
30463;BME280;17256;43.618;25.336;2023-04-25T10:56:19;99599.09;;;19.42;91.40
30463;BME280;17256;43.618;25.336;2023-04-25T10:58:47;99591.59;;;19.38;90.49
30463;BME280;17256;43.618;25.336;2023-04-25T11:01:14;99614.13;;;19.61;88.20
30463;BME280;17256;43.618;25.336;2023-04-25T11:03:41;99411.47;;;18.02;81.93
30463;BME280;17256;43.618;25.336;2023-04-25T11:06:42;99714.03;;;19.93;86.67
30463;BME280;17256;43.618;25.336;2023-04-25T11:09:44;99643.94;;;19.41;87.25
30463;BME280;17256;43.618;25.336;2023-04-25T11:15:40;99588.88;;;18.92;86.44
30463;BME280;17256;43.618;25.336;2023-04-25T11:18:06;99458.97;;;18.06;81.94
30463;BME280;17256;43.618;25.336;2023-04-25T11:20:31;99457.31;;;18.15;90.52
30463;BME280;17256;43.618;25.336;2023-04-25T11:22:58;99484.56;;;18.38;89.09
30463;BME280;17256;43.618;25.336;2023-04-25T11:25:26;99551.03;;;18.70;88.08
30463;BME280;17256;43.618;25.336;2023-04-25T11:27:55;99357.50;;;17.47;87.67
30463;BME280;17256;43.618;25.336;2023-04-25T11:30:25;99301.72;;;17.54;92.26
30463;BME280;17256;43.618;25.336;2023-04-25T11:32:51;99580.13;;;19.49;87.90
30463;BME280;17256;43.618;25.336;2023-04-25T11:35:18;99355.06;;;18.07;84.56
30463;BME280;17256;43.618;25.336;2023-04-25T11:37:45;99747.38;;;20.34;79.63
30463;BME280;17256;43.618;25.336;2023-04-25T11:40:11;99364.50;;;18.06;89.39
30463;BME280;17256;43.618;25.336;2023-04-25T11:42:44;99537.38;;;19.04;92.20
30463;BME280;17256;43.618;25.336;2023-04-25T11:45:10;99442.31;;;18.47;92.99
30463;BME280;17256;43.618;25.336;2023-04-25T11:51:51;99681.72;;;19.92;100.00
30463;BME280;17256;43.618;25.336;2023-04-25T11:54:59;99315.91;;;17.73;100.00
30463;BME280;17256;43.618;25.336;2023-04-25T11:57:25;99260.66;;;17.41;100.00
30463;BME280;17256;43.618;25.336;2023-04-25T11:59:50;99371.19;;;18.20;97.86
30463;BME280;17256;43.618;25.336;2023-04-25T12:02:26;99515.25;;;19.49;96.42
30463;BME280;17256;43.618;25.336;2023-04-25T12:04:52;99375.53;;;18.87;88.69
30463;BME280;17256;43.618;25.336;2023-04-25T12:07:17;99559.69;;;19.89;81.71
30463;BME280;17256;43.618;25.336;2023-04-25T12:09:51;99621.53;;;20.51;81.60
30463;BME280;17256;43.618;25.336;2023-04-25T12:12:17;99448.91;;;19.71;79.82
30463;BME280;17256;43.618;25.336;2023-04-25T12:14:46;99525.31;;;20.09;82.13
30463;BME280;17256;43.618;25.336;2023-04-25T12:17:13;99567.38;;;20.13;80.79
30463;BME280;17256;43.618;25.336;2023-04-25T12:19:39;99419.94;;;19.08;79.41
30463;BME280;17256;43.618;25.336;2023-04-25T12:22:23;99646.34;;;20.52;82.34
30463;BME280;17256;43.618;25.336;2023-04-25T12:24:49;99532.75;;;19.70;80.62
30463;BME280;17256;43.618;25.336;2023-04-25T12:27:16;99642.97;;;20.55;84.94
30463;BME280;17256;43.618;25.336;2023-04-25T12:29:51;99632.84;;;20.20;80.95
30463;BME280;17256;43.618;25.336;2023-04-25T12:32:17;99503.69;;;19.06;82.59
30463;BME280;17256;43.618;25.336;2023-04-25T12:34:43;99560.13;;;19.42;85.51
30463;BME280;17256;43.618;25.336;2023-04-25T12:37:09;99504.53;;;19.17;86.94
30463;BME280;17256;43.618;25.336;2023-04-25T12:39:35;99462.25;;;19.04;80.75
30463;BME280;17256;43.618;25.336;2023-04-25T12:42:00;99465.84;;;19.85;79.00
30463;BME280;17256;43.618;25.336;2023-04-25T12:44:26;99520.19;;;20.95;72.77
30463;BME280;17256;43.618;25.336;2023-04-25T12:46:52;99512.81;;;21.09;72.71
30463;BME280;17256;43.618;25.336;2023-04-25T12:49:18;99445.72;;;20.66;66.42
30463;BME280;17256;43.618;25.336;2023-04-25T12:51:43;99490.19;;;21.10;68.13
30463;BME280;17256;43.618;25.336;2023-04-25T12:54:09;99438.03;;;20.82;68.08
30463;BME280;17256;43.618;25.336;2023-04-25T12:56:35;99438.59;;;20.79;64.30
30463;BME280;17256;43.618;25.336;2023-04-25T12:59:01;99507.16;;;21.14;63.18
30463;BME280;17256;43.618;25.336;2023-04-25T13:01:28;99425.53;;;20.06;63.91
30463;BME280;17256;43.618;25.336;2023-04-25T13:03:55;99348.66;;;19.71;68.01
30463;BME280;17256;43.618;25.336;2023-04-25T13:06:21;99247.81;;;19.35;66.37
30463;BME280;17256;43.618;25.336;2023-04-25T13:08:47;99628.09;;;21.43;64.54
30463;BME280;17256;43.618;25.336;2023-04-25T13:11:13;99630.91;;;21.67;65.50
30463;BME280;17256;43.618;25.336;2023-04-25T13:13:40;99632.50;;;21.73;65.28
30463;BME280;17256;43.618;25.336;2023-04-25T13:16:08;99419.66;;;20.47;63.58
30463;BME280;17256;43.618;25.336;2023-04-25T13:18:36;99256.97;;;19.41;62.15
30463;BME280;17256;43.618;25.336;2023-04-25T13:21:03;99215.97;;;19.12;63.15
30463;BME280;17256;43.618;25.336;2023-04-25T13:23:30;99515.41;;;20.71;62.78
30463;BME280;17256;43.618;25.336;2023-04-25T13:26:02;99388.19;;;19.73;64.95
30463;BME280;17256;43.618;25.336;2023-04-25T13:28:31;99391.91;;;19.58;65.36
30463;BME280;17256;43.618;25.336;2023-04-25T13:30:59;99555.19;;;20.48;67.89
30463;BME280;17256;43.618;25.336;2023-04-25T13:33:26;99416.88;;;19.74;67.13
30463;BME280;17256;43.618;25.336;2023-04-25T13:35:55;99282.69;;;18.68;66.92
30463;BME280;17256;43.618;25.336;2023-04-25T13:38:25;99481.44;;;19.81;67.05
30463;BME280;17256;43.618;25.336;2023-04-25T13:40:52;99249.91;;;18.55;68.22
30463;BME280;17256;43.618;25.336;2023-04-25T13:43:21;99384.19;;;19.40;70.19
30463;BME280;17256;43.618;25.336;2023-04-25T13:45:48;99247.66;;;18.57;70.31
30463;BME280;17256;43.618;25.336;2023-04-25T13:48:43;99607.09;;;20.83;69.89
30463;BME280;17256;43.618;25.336;2023-04-25T13:54:26;99250.06;;;18.14;72.91
30463;BME280;17256;43.618;25.336;2023-04-25T13:56:59;99645.63;;;19.01;76.37